createdAt,value
2023-02-22T00:01:35.296Z,2.10
2023-02-22T00:04:07.017Z,2.25
2023-02-22T00:06:37.455Z,2.20
2023-02-22T00:09:08.810Z,2.45
2023-02-22T00:11:38.737Z,2.58
2023-02-22T00:14:07.682Z,2.50
2023-02-22T00:16:36.599Z,2.60
2023-02-22T00:19:06.104Z,2.25
2023-02-22T00:21:37.395Z,2.60
2023-02-22T00:24:23.322Z,2.28
2023-02-22T00:26:55.728Z,2.50
2023-02-22T00:29:25.722Z,2.40
2023-02-22T00:31:54.869Z,2.22
2023-02-22T00:34:24.787Z,2.28
2023-02-22T00:36:55.166Z,2.70
2023-02-22T00:39:23.953Z,2.28
2023-02-22T00:41:52.881Z,2.67
2023-02-22T00:44:22.192Z,2.50
2023-02-22T00:46:51.107Z,2.50
2023-02-22T00:49:20.136Z,2.40
2023-02-22T00:51:48.908Z,2.20
2023-02-22T00:54:20.198Z,2.00
2023-02-22T00:56:50.568Z,2.30
2023-02-22T00:59:19.460Z,2.08
2023-02-22T01:01:48.504Z,2.42
2023-02-22T01:04:18.484Z,2.20
2023-02-22T01:06:47.286Z,2.15
2023-02-22T01:09:16.132Z,1.70
2023-02-22T01:11:47.648Z,2.15
2023-02-22T01:14:16.632Z,1.88
2023-02-22T01:16:45.596Z,2.40
2023-02-22T01:19:14.670Z,2.50
2023-02-22T01:21:43.538Z,2.28
2023-02-22T01:24:16.464Z,2.30
2023-02-22T01:26:53.004Z,2.17
2023-02-22T01:29:22.520Z,2.35
2023-02-22T01:31:57.534Z,2.33
2023-02-22T01:34:26.914Z,2.05
2023-02-22T01:36:56.628Z,2.33
2023-02-22T01:39:25.509Z,2.50
2023-02-22T01:41:56.261Z,2.17
2023-02-22T01:44:31.937Z,2.40
2023-02-22T01:47:03.590Z,2.05
2023-02-22T01:49:37.226Z,2.22
2023-02-22T01:52:11.365Z,2.40
2023-02-22T01:54:46.321Z,2.40
2023-02-22T01:57:26.922Z,2.45
2023-02-22T02:00:10.045Z,2.58
2023-02-22T02:02:41.430Z,2.22
2023-02-22T02:05:10.899Z,2.30
2023-02-22T02:07:41.714Z,2.70
2023-02-22T02:10:15.485Z,2.28
2023-02-22T02:12:49.026Z,2.10
2023-02-22T02:15:25.349Z,2.40
2023-02-22T02:17:57.674Z,2.53
2023-02-22T02:20:35.334Z,2.55
2023-02-22T02:23:26.522Z,2.70
2023-02-22T02:26:22.404Z,2.33
2023-02-22T02:29:34.302Z,2.50
2023-02-22T02:32:48.476Z,2.92
2023-02-22T02:35:28.183Z,2.50
2023-02-22T02:38:04.311Z,2.50
2023-02-22T02:40:41.043Z,2.47
2023-02-22T02:43:18.891Z,2.55
2023-02-22T02:45:56.353Z,2.28
2023-02-22T02:48:32.404Z,2.50
2023-02-22T02:51:05.876Z,2.50
2023-02-22T02:53:39.934Z,2.50
2023-02-22T02:56:09.119Z,2.50
2023-02-22T02:58:53.043Z,2.55
2023-02-22T03:01:55.175Z,2.42
2023-02-22T03:04:42.578Z,2.70
2023-02-22T03:07:40.272Z,2.58
2023-02-22T03:10:30.284Z,2.60
2023-02-22T03:13:11.812Z,2.78
2023-02-22T03:15:54.382Z,2.33
2023-02-22T03:18:32.184Z,2.38
2023-02-22T03:21:18.118Z,2.63
2023-02-22T03:23:57.932Z,2.22
2023-02-22T03:26:35.911Z,2.58
2023-02-22T03:29:06.926Z,2.95
2023-02-22T03:31:42.398Z,3.00
2023-02-22T03:34:16.829Z,2.70
2023-02-22T03:36:56.064Z,2.67
2023-02-22T03:39:31.383Z,2.60
2023-02-22T03:42:08.096Z,2.80
2023-02-22T03:44:40.521Z,2.60
2023-02-22T03:47:19.687Z,3.08
2023-02-22T03:49:58.912Z,2.38
2023-02-22T03:52:29.206Z,2.78
2023-02-22T03:54:58.088Z,2.80
2023-02-22T03:57:31.983Z,2.70
2023-02-22T04:00:00.939Z,3.00
2023-02-22T04:02:29.703Z,3.03
2023-02-22T04:04:58.791Z,2.53
2023-02-22T04:07:29.095Z,2.78
2023-02-22T04:09:57.805Z,2.97
2023-02-22T04:12:26.681Z,2.90
2023-02-22T04:14:55.414Z,2.50
2023-02-22T04:17:24.205Z,2.80
2023-02-22T04:19:52.927Z,2.90
2023-02-22T04:22:21.663Z,2.80
2023-02-22T04:24:51.858Z,2.90
2023-02-22T04:27:20.627Z,2.92
2023-02-22T04:29:49.480Z,3.25
2023-02-22T04:32:18.322Z,2.95
2023-02-22T04:34:47.075Z,3.17
2023-02-22T04:37:15.892Z,2.92
2023-02-22T04:39:44.960Z,2.85
2023-02-22T04:42:15.338Z,2.92
2023-02-22T04:44:44.653Z,2.92
2023-02-22T04:47:13.430Z,2.83
2023-02-22T04:49:42.494Z,2.90
2023-02-22T04:52:11.277Z,3.20
2023-02-22T04:54:40.337Z,3.10
2023-02-22T04:57:09.168Z,2.75
2023-02-22T04:59:39.412Z,2.92
2023-02-22T05:02:08.238Z,2.90
2023-02-22T05:04:39.313Z,3.22
2023-02-22T05:07:08.163Z,3.40
2023-02-22T05:09:37.015Z,3.42
2023-02-22T05:12:06.674Z,2.92
2023-02-22T05:14:35.631Z,3.38
2023-02-22T05:17:06.135Z,3.30
2023-02-22T05:19:34.908Z,2.83
2023-02-22T05:22:03.782Z,3.00
2023-02-22T05:24:32.806Z,3.63
2023-02-22T05:27:01.728Z,3.47
2023-02-22T05:29:30.759Z,3.38
2023-02-22T05:31:59.686Z,4.00
2023-02-22T05:34:30.964Z,4.07
2023-02-22T05:36:59.968Z,4.35
2023-02-22T05:39:28.795Z,4.05
2023-02-22T05:41:58.028Z,2.95
2023-02-22T05:44:28.086Z,3.30
2023-02-22T05:46:56.907Z,4.35
2023-02-22T05:49:25.681Z,3.83
2023-02-22T05:51:59.631Z,4.28
2023-02-22T05:54:28.424Z,4.80
2023-02-22T05:56:57.238Z,4.47
2023-02-22T05:59:26.192Z,4.20
2023-02-22T06:01:55.091Z,13.88
2023-02-22T06:04:23.895Z,44.42
2023-02-22T06:06:54.406Z,34.35
2023-02-22T06:09:23.166Z,12.88
2023-02-22T06:11:54.383Z,16.50
2023-02-22T06:14:24.441Z,12.18
2023-02-22T06:16:57.241Z,5.07
2023-02-22T06:19:26.474Z,3.80
2023-02-22T06:22:00.555Z,16.35
2023-02-22T06:24:29.535Z,32.35
2023-02-22T06:27:00.077Z,26.15
2023-02-22T06:29:30.263Z,5.75
2023-02-22T06:31:59.127Z,4.00
2023-02-22T06:34:27.882Z,4.43
2023-02-22T06:36:59.988Z,3.92
2023-02-22T06:39:29.218Z,3.95
2023-02-22T06:41:58.641Z,4.10
2023-02-22T06:44:27.771Z,4.75
2023-02-22T06:46:56.651Z,4.13
2023-02-22T06:49:26.698Z,41.58
2023-02-22T06:51:57.709Z,19.58
2023-02-22T06:54:27.285Z,11.10
2023-02-22T06:56:56.291Z,5.70
2023-02-22T06:59:25.153Z,4.63
2023-02-22T07:01:54.226Z,4.45
2023-02-22T07:04:23.308Z,5.32
2023-02-22T07:06:52.497Z,4.53
2023-02-22T07:09:22.895Z,4.10
2023-02-22T07:11:51.912Z,4.63
2023-02-22T07:14:20.932Z,4.32
2023-02-22T07:16:50.111Z,4.80
2023-02-22T07:19:19.131Z,5.10
2023-02-22T07:21:49.196Z,4.95
2023-02-22T07:24:18.015Z,28.83
2023-02-22T07:26:48.320Z,46.95
2023-02-22T07:29:17.295Z,12.95
2023-02-22T07:31:47.050Z,5.03
2023-02-22T07:34:15.946Z,4.45
2023-02-22T07:36:45.110Z,4.90
2023-02-22T07:39:14.051Z,4.00
2023-02-22T07:41:42.979Z,5.00
2023-02-22T07:44:13.347Z,4.40
2023-02-22T07:46:42.262Z,5.10
2023-02-22T07:49:11.201Z,4.35
2023-02-22T07:51:39.996Z,5.75
2023-02-22T07:54:08.809Z,5.00
2023-02-22T07:56:37.882Z,5.55
2023-02-22T07:59:06.876Z,6.03
2023-02-22T08:01:37.576Z,6.25
2023-02-22T08:04:06.896Z,8.30
2023-02-22T08:06:36.194Z,22.73
2023-02-22T08:09:05.187Z,20.10
2023-02-22T08:11:34.189Z,8.32
2023-02-22T08:14:03.249Z,6.35
2023-02-22T08:16:32.193Z,5.70
2023-02-22T08:19:02.976Z,7.13
2023-02-22T08:21:31.848Z,6.30
2023-02-22T08:24:00.742Z,6.90
2023-02-22T08:26:29.578Z,6.80
2023-02-22T08:28:58.422Z,7.10
2023-02-22T08:31:27.557Z,7.10
2023-02-22T08:33:57.199Z,16.33
2023-02-22T08:36:27.448Z,23.88
2023-02-22T08:38:56.298Z,19.45
2023-02-22T08:41:25.134Z,9.57
2023-02-22T08:43:54.134Z,5.43
2023-02-22T08:46:23.242Z,4.88
2023-02-22T08:48:53.326Z,4.95
2023-02-22T08:51:23.040Z,5.05
2023-02-22T08:53:53.582Z,4.35
2023-02-22T08:56:23.327Z,4.90
2023-02-22T08:58:52.512Z,4.22
2023-02-22T09:01:32.726Z,4.57
2023-02-22T09:04:02.876Z,18.25
2023-02-22T09:06:32.114Z,8.90
2023-02-22T09:09:02.373Z,5.00
2023-02-22T09:11:31.246Z,4.00
2023-02-22T09:14:00.252Z,5.07
2023-02-22T09:16:29.757Z,5.00
2023-02-22T09:18:58.823Z,3.95
2023-02-22T09:21:27.747Z,3.65
2023-02-22T09:23:56.679Z,3.55
2023-02-22T09:26:27.768Z,3.38
2023-02-22T09:28:56.542Z,3.63
2023-02-22T09:31:25.617Z,3.60
2023-02-22T09:33:54.709Z,4.60
2023-02-22T09:36:26.135Z,4.80
2023-02-22T09:38:55.111Z,4.75
2023-02-22T09:41:36.101Z,4.18
2023-02-22T09:44:23.598Z,4.45
2023-02-22T09:46:56.312Z,3.10
2023-02-22T09:49:33.320Z,3.85
2023-02-22T09:52:07.690Z,4.40
2023-02-22T09:54:43.649Z,4.28
2023-02-22T09:57:20.195Z,3.50
2023-02-22T10:00:02.144Z,2.83
2023-02-22T10:02:41.444Z,4.20
2023-02-22T10:05:19.822Z,3.42
2023-02-22T10:07:55.057Z,3.95
2023-02-22T10:10:27.795Z,4.22
2023-02-22T10:13:07.170Z,7.47
2023-02-22T10:15:55.213Z,6.80
2023-02-22T10:19:12.212Z,5.18
2023-02-22T10:22:12.974Z,4.93
2023-02-22T10:24:59.543Z,5.15
2023-02-22T10:27:35.573Z,2.97
2023-02-22T10:30:24.849Z,2.90
2023-02-22T10:33:02.538Z,3.30
2023-02-22T10:35:36.548Z,3.50
2023-02-22T10:38:17.946Z,5.60
2023-02-22T10:40:54.881Z,6.65
2023-02-22T10:43:25.824Z,6.38
2023-02-22T10:46:03.017Z,5.85
2023-02-22T10:48:37.763Z,6.35
2023-02-22T10:51:10.566Z,5.63
2023-02-22T10:53:40.252Z,5.15
2023-02-22T10:56:21.480Z,6.55
2023-02-22T10:58:57.628Z,11.63
2023-02-22T11:01:37.393Z,6.45
2023-02-22T11:04:14.461Z,7.15
2023-02-22T11:06:46.256Z,6.40
2023-02-22T11:09:22.613Z,6.63
2023-02-22T11:12:09.535Z,6.10
2023-02-22T11:14:39.241Z,5.78
2023-02-22T11:17:14.341Z,11.13
2023-02-22T11:19:51.210Z,5.13
2023-02-22T11:22:29.461Z,5.13
2023-02-22T11:25:02.583Z,4.43
2023-02-22T11:27:40.684Z,5.03
2023-02-22T11:30:35.537Z,4.90
2023-02-22T11:33:24.029Z,5.60
2023-02-22T11:35:56.049Z,9.23
2023-02-22T11:38:28.680Z,7.70
2023-02-22T11:41:19.468Z,3.88
2023-02-22T11:43:51.109Z,4.82
2023-02-22T11:46:26.327Z,4.80
2023-02-22T11:49:05.556Z,4.10
2023-02-22T11:52:06.740Z,4.30
2023-02-22T11:55:32.604Z,3.95
2023-02-22T11:58:26.626Z,3.63
2023-02-22T12:01:07.349Z,3.50
2023-02-22T12:04:23.316Z,3.63
2023-02-22T12:07:15.534Z,4.72
2023-02-22T12:09:52.219Z,6.40
2023-02-22T12:12:31.614Z,7.15
2023-02-22T12:15:15.090Z,6.30
2023-02-22T12:18:02.137Z,6.38
2023-02-22T12:20:39.887Z,11.88
2023-02-22T12:23:20.334Z,5.15
2023-02-22T12:26:00.404Z,5.57
2023-02-22T12:28:38.110Z,5.13
2023-02-22T12:31:23.500Z,4.25
2023-02-22T12:34:05.158Z,3.70
2023-02-22T12:36:45.638Z,3.88
2023-02-22T12:39:52.354Z,4.88
2023-02-22T12:42:32.309Z,7.82
2023-02-22T12:45:11.406Z,12.93
2023-02-22T12:47:50.702Z,10.95
2023-02-22T12:50:23.893Z,5.60
2023-02-22T12:53:01.202Z,4.18
2023-02-22T12:55:39.712Z,4.40
2023-02-22T12:58:22.002Z,4.70
2023-02-22T13:01:02.225Z,4.93
2023-02-22T13:03:38.698Z,5.15
2023-02-22T13:06:36.694Z,4.78
2023-02-22T13:09:28.403Z,4.90
2023-02-22T13:12:08.971Z,5.38
2023-02-22T13:14:53.043Z,12.02
2023-02-22T13:17:34.223Z,6.10
2023-02-22T13:20:14.432Z,8.68
2023-02-22T13:22:51.683Z,15.73
2023-02-22T13:25:33.007Z,5.60
2023-02-22T13:28:20.920Z,6.45
2023-02-22T13:31:14.381Z,5.75
2023-02-22T13:34:08.664Z,5.82
2023-02-22T13:36:58.355Z,6.00
2023-02-22T13:40:06.698Z,5.90
2023-02-22T13:43:05.126Z,5.45
2023-02-22T13:46:12.768Z,5.03
2023-02-22T13:49:24.122Z,5.72
2023-02-22T13:52:00.297Z,9.68
2023-02-22T13:54:46.723Z,6.82
2023-02-22T13:57:27.888Z,5.40
2023-02-22T14:00:40.842Z,6.43
2023-02-22T14:03:41.154Z,5.40
2023-02-22T14:06:33.052Z,8.18
2023-02-22T14:09:09.760Z,7.20
2023-02-22T14:11:48.464Z,6.70
2023-02-22T14:14:19.236Z,7.32
2023-02-22T14:17:33.883Z,6.97
2023-02-22T14:20:17.733Z,5.88
2023-02-22T14:22:48.955Z,6.40
2023-02-22T14:25:40.556Z,6.13
2023-02-22T14:28:31.690Z,7.53
2023-02-22T14:31:09.840Z,5.90
2023-02-22T14:34:10.624Z,5.55
2023-02-22T14:36:56.926Z,7.63
2023-02-22T14:39:34.414Z,5.72
2023-02-22T14:42:09.842Z,7.32
2023-02-22T14:44:44.730Z,9.32
2023-02-22T14:47:22.816Z,9.70
2023-02-22T14:49:56.418Z,7.70
2023-02-22T14:52:31.597Z,5.85
2023-02-22T14:55:14.666Z,5.97
2023-02-22T14:58:06.951Z,10.85
2023-02-22T15:00:45.976Z,6.80
2023-02-22T15:03:33.602Z,8.18
2023-02-22T15:06:16.063Z,5.82
2023-02-22T15:08:49.060Z,7.00
2023-02-22T15:11:31.510Z,6.75
2023-02-22T15:14:03.346Z,6.97
2023-02-22T15:16:35.967Z,7.18
2023-02-22T15:19:08.488Z,6.78
2023-02-22T15:21:47.144Z,7.35
2023-02-22T15:24:26.875Z,5.75
2023-02-22T15:27:02.527Z,5.70
2023-02-22T15:29:39.077Z,5.03
2023-02-22T15:32:21.676Z,5.13
2023-02-22T15:34:50.638Z,5.97
2023-02-22T15:37:28.107Z,5.78
2023-02-22T15:40:14.705Z,6.45
2023-02-22T15:42:49.821Z,5.95
2023-02-22T15:45:21.738Z,6.72
2023-02-22T15:47:51.349Z,11.65
2023-02-22T15:50:26.098Z,10.07
2023-02-22T15:53:06.833Z,6.93
2023-02-22T15:55:39.274Z,6.10
2023-02-22T15:58:13.512Z,6.50
2023-02-22T16:00:49.212Z,6.57
2023-02-22T16:03:24.226Z,9.60
2023-02-22T16:05:57.450Z,8.75
2023-02-22T16:08:52.640Z,9.15
2023-02-22T16:11:30.290Z,8.35
2023-02-22T16:14:04.981Z,9.02
2023-02-22T16:16:36.522Z,9.25
2023-02-22T16:19:34.546Z,9.13
2023-02-22T16:22:13.645Z,18.83
2023-02-22T16:24:44.399Z,13.38
2023-02-22T16:27:20.763Z,10.57
2023-02-22T16:30:15.527Z,10.98
2023-02-22T16:32:52.535Z,11.32
2023-02-22T16:35:21.594Z,10.88
2023-02-22T16:37:52.628Z,11.23
2023-02-22T16:40:27.028Z,12.10
2023-02-22T16:42:55.948Z,12.52
2023-02-22T16:45:24.697Z,9.75
2023-02-22T16:47:53.807Z,11.13
2023-02-22T16:50:23.864Z,10.55
2023-02-22T16:52:58.626Z,10.90
2023-02-22T16:55:28.987Z,11.48
2023-02-22T16:58:01.120Z,11.07
2023-02-22T17:00:34.728Z,11.52
2023-02-22T17:03:06.094Z,15.55
2023-02-22T17:05:36.930Z,21.45
2023-02-22T17:08:06.842Z,15.93
2023-02-22T17:10:37.691Z,15.98
2023-02-22T17:13:22.183Z,14.30
2023-02-22T17:15:54.835Z,13.27
2023-02-22T17:18:28.585Z,14.55
2023-02-22T17:20:57.869Z,26.05
2023-02-22T17:23:27.738Z,34.45
2023-02-22T17:26:00.549Z,21.85
2023-02-22T17:28:29.608Z,11.73
2023-02-22T17:31:02.123Z,19.15
2023-02-22T17:33:34.373Z,30.73
2023-02-22T17:36:05.536Z,33.47
2023-02-22T17:38:34.881Z,14.55
2023-02-22T17:41:07.828Z,10.45
2023-02-22T17:43:36.781Z,9.63
2023-02-22T17:46:09.119Z,9.38
2023-02-22T17:48:41.335Z,10.35
2023-02-22T17:51:13.256Z,10.98
2023-02-22T17:53:42.594Z,10.50
2023-02-22T17:56:18.965Z,9.32
2023-02-22T17:58:49.880Z,9.25
2023-02-22T18:01:27.229Z,9.02
2023-02-22T18:03:58.106Z,8.90
2023-02-22T18:06:30.166Z,9.10
2023-02-22T18:09:01.223Z,9.13
2023-02-22T18:11:32.766Z,10.13
2023-02-22T18:14:01.677Z,9.77
2023-02-22T18:16:30.568Z,10.32
2023-02-22T18:19:01.672Z,8.93
2023-02-22T18:21:30.487Z,9.73
2023-02-22T18:24:00.688Z,9.80
2023-02-22T18:26:33.406Z,8.90
2023-02-22T18:29:03.608Z,10.18
2023-02-22T18:31:34.126Z,10.05
2023-02-22T18:34:07.536Z,10.10
2023-02-22T18:36:40.880Z,10.68
2023-02-22T18:39:13.145Z,11.13
2023-02-22T18:41:45.849Z,11.52
2023-02-22T18:44:14.820Z,11.15
2023-02-22T18:46:44.685Z,11.20
2023-02-22T18:49:15.400Z,13.98
2023-02-22T18:51:46.071Z,10.60
2023-02-22T18:54:14.967Z,10.23
2023-02-22T18:56:45.136Z,9.75
2023-02-22T18:59:14.514Z,9.85
2023-02-22T19:01:48.981Z,10.07
2023-02-22T19:04:19.803Z,10.32
2023-02-22T19:06:49.917Z,9.73
2023-02-22T19:09:18.864Z,12.07
2023-02-22T19:11:51.279Z,13.20
2023-02-22T19:14:20.142Z,11.98
2023-02-22T19:16:51.812Z,11.73
2023-02-22T19:19:21.085Z,11.63
2023-02-22T19:21:50.818Z,10.00
2023-02-22T19:24:20.836Z,10.43
2023-02-22T19:26:53.804Z,9.80
2023-02-22T19:29:23.869Z,10.15
2023-02-22T19:31:54.057Z,9.80
2023-02-22T19:34:24.775Z,8.93
2023-02-22T19:36:53.796Z,8.52
2023-02-22T19:41:54.166Z,7.95
2023-02-22T19:44:23.234Z,7.65
2023-02-22T19:46:55.246Z,10.30
2023-02-22T19:49:27.152Z,9.40
2023-02-22T19:51:58.216Z,8.68
2023-02-22T19:54:27.595Z,8.07
2023-02-22T19:56:58.888Z,7.10
2023-02-22T19:59:30.189Z,8.05
2023-02-22T20:01:59.122Z,7.88
2023-02-22T20:04:30.857Z,7.10
2023-02-22T20:06:59.756Z,8.23
2023-02-22T20:09:36.515Z,8.15
2023-02-22T20:12:08.717Z,9.07
2023-02-22T20:14:38.860Z,7.78
2023-02-22T20:17:09.376Z,7.68
2023-02-22T20:19:40.512Z,8.13
2023-02-22T20:22:10.067Z,8.05
2023-02-22T20:24:39.379Z,7.20
2023-02-22T20:27:09.964Z,6.93
2023-02-22T20:29:38.776Z,7.22
2023-02-22T20:32:11.134Z,7.53
2023-02-22T20:34:40.178Z,7.50
2023-02-22T20:37:09.057Z,8.20
2023-02-22T20:39:37.862Z,8.18
2023-02-22T20:42:08.850Z,10.05
2023-02-22T20:44:37.585Z,9.30
2023-02-22T20:47:06.725Z,8.38
2023-02-22T20:49:36.091Z,7.78
2023-02-22T20:52:05.230Z,9.45
2023-02-22T20:54:35.308Z,10.13
2023-02-22T20:57:05.579Z,8.13
2023-02-22T20:59:36.138Z,7.93
2023-02-22T21:02:04.934Z,8.65
2023-02-22T21:04:34.078Z,8.23
2023-02-22T21:07:03.322Z,7.97
2023-02-22T21:09:33.963Z,7.60
2023-02-22T21:12:02.824Z,7.72
2023-02-22T21:14:32.671Z,9.15
2023-02-22T21:17:04.591Z,9.30
2023-02-22T21:19:33.439Z,10.52
2023-02-22T21:22:08.174Z,13.32
2023-02-22T21:24:38.066Z,16.00
2023-02-22T21:27:07.112Z,10.65
2023-02-22T21:29:36.209Z,8.85
2023-02-22T21:32:08.653Z,8.32
2023-02-22T21:34:37.876Z,8.15
2023-02-22T21:37:08.231Z,8.10
2023-02-22T21:39:37.158Z,7.50
2023-02-22T21:42:07.349Z,7.60
2023-02-22T21:44:36.058Z,7.70
2023-02-22T21:47:06.441Z,7.63
2023-02-22T21:49:35.237Z,7.78
2023-02-22T21:52:04.493Z,7.75
2023-02-22T21:54:33.433Z,11.80
2023-02-22T21:57:02.308Z,18.40
2023-02-22T21:59:31.053Z,10.85
2023-02-22T22:01:59.850Z,8.32
2023-02-22T22:04:32.962Z,8.35
2023-02-22T22:07:04.322Z,7.97
2023-02-22T22:09:37.262Z,7.53
2023-02-22T22:12:07.003Z,7.68
2023-02-22T22:14:37.182Z,7.90
2023-02-22T22:17:09.459Z,8.18
2023-02-22T22:19:40.736Z,8.70
2023-02-22T22:22:10.216Z,8.95
2023-02-22T22:24:41.612Z,8.23
2023-02-22T22:27:12.992Z,9.23
2023-02-22T22:29:43.500Z,8.40
2023-02-22T22:32:12.560Z,8.77
2023-02-22T22:34:43.607Z,7.82
2023-02-22T22:37:13.338Z,8.27
2023-02-22T22:39:42.611Z,8.65
2023-02-22T22:42:11.538Z,8.13
2023-02-22T22:44:42.224Z,8.15
2023-02-22T22:47:12.616Z,8.50
2023-02-22T22:49:42.996Z,7.90
2023-02-22T22:52:14.088Z,8.77
2023-02-22T22:54:44.197Z,8.80
2023-02-22T22:57:13.518Z,8.65
2023-02-22T22:59:42.320Z,8.35
2023-02-22T23:02:11.540Z,7.88
2023-02-22T23:04:41.847Z,8.13
2023-02-22T23:07:11.069Z,8.73
2023-02-22T23:09:40.505Z,8.20
2023-02-22T23:12:16.902Z,8.38
2023-02-22T23:14:47.139Z,8.90
2023-02-22T23:17:31.176Z,8.43
2023-02-22T23:20:01.694Z,9.30
2023-02-22T23:22:30.609Z,9.45
2023-02-22T23:25:01.077Z,8.88
2023-02-22T23:27:30.456Z,8.40
2023-02-22T23:29:59.382Z,9.32
2023-02-22T23:32:28.488Z,9.23
2023-02-22T23:34:57.398Z,9.50
2023-02-22T23:37:27.696Z,9.50
2023-02-22T23:39:56.501Z,9.55
2023-02-22T23:42:25.329Z,9.23
2023-02-22T23:44:54.174Z,9.27
2023-02-22T23:47:23.045Z,9.45
2023-02-22T23:49:51.873Z,9.88
2023-02-22T23:52:24.314Z,9.98
2023-02-22T23:54:54.782Z,9.45
2023-02-22T23:57:24.765Z,9.45
2023-02-22T23:59:53.666Z,9.98
